Terminal Aerodrome Forecast
Issued by NWS

Home | Current Version | Previous Version | Text Only | Print | Product List | Glossary Off
Versions: 1 2 3 4 5 6 7 8 9 10 11 12 13 14 15 16 17 18

755
FTUS43 KICT 272331
TAFSLN
TAF
KSLN 272331Z 2800/2824 VRB03KT P6SM FEW250
     FM280500 VRB03KT P6SM VCTS SCT250CB
     FM281100 01004KT P6SM SCT200
     FM282000 07005KT P6SM FEW050 FEW200=

USA.gov is the U.S. government's official web portal to all federal, state and local government web resources and services.